sensor_id;sensor_type;location;lat;lon;timestamp;P1;durP1;ratioP1;P2;durP2;ratioP2
43650;SDS011;29247;50.944;5.382;2024-03-07T00:00:03;1.20;;;0.82;;
43650;SDS011;29247;50.944;5.382;2024-03-07T00:02:39;0.98;;;0.82;;
43650;SDS011;29247;50.944;5.382;2024-03-07T00:05:08;1.65;;;0.82;;
43650;SDS011;29247;50.944;5.382;2024-03-07T00:07:36;2.97;;;0.90;;
43650;SDS011;29247;50.944;5.382;2024-03-07T00:10:02;3.72;;;1.30;;
43650;SDS011;29247;50.944;5.382;2024-03-07T00:12:32;1.33;;;1.08;;
43650;SDS011;29247;50.944;5.382;2024-03-07T00:15:07;1.02;;;0.93;;
43650;SDS011;29247;50.944;5.382;2024-03-07T00:17:33;1.50;;;1.15;;
43650;SDS011;29247;50.944;5.382;2024-03-07T00:19:59;1.40;;;1.27;;
43650;SDS011;29247;50.944;5.382;2024-03-07T00:22:28;1.30;;;1.20;;
43650;SDS011;29247;50.944;5.382;2024-03-07T00:24:55;1.77;;;0.88;;
43650;SDS011;29247;50.944;5.382;2024-03-07T00:27:21;1.05;;;0.70;;
43650;SDS011;29247;50.944;5.382;2024-03-07T00:29:48;1.40;;;1.10;;
43650;SDS011;29247;50.944;5.382;2024-03-07T00:34:49;1.77;;;1.10;;
43650;SDS011;29247;50.944;5.382;2024-03-07T00:37:17;1.17;;;1.02;;
43650;SDS011;29247;50.944;5.382;2024-03-07T00:39:45;2.08;;;1.02;;
43650;SDS011;29247;50.944;5.382;2024-03-07T00:42:11;1.30;;;1.05;;
43650;SDS011;29247;50.944;5.382;2024-03-07T00:44:41;0.90;;;0.90;;
43650;SDS011;29247;50.944;5.382;2024-03-07T00:47:11;1.33;;;1.23;;
43650;SDS011;29247;50.944;5.382;2024-03-07T00:49:37;1.20;;;1.10;;
43650;SDS011;29247;50.944;5.382;2024-03-07T00:52:03;1.50;;;1.17;;
43650;SDS011;29247;50.944;5.382;2024-03-07T00:54:28;3.53;;;1.42;;
43650;SDS011;29247;50.944;5.382;2024-03-07T00:56:57;1.67;;;1.20;;
43650;SDS011;29247;50.944;5.382;2024-03-07T00:59:25;1.15;;;0.98;;
43650;SDS011;29247;50.944;5.382;2024-03-07T01:01:50;1.00;;;0.95;;
43650;SDS011;29247;50.944;5.382;2024-03-07T01:04:16;2.15;;;1.30;;
43650;SDS011;29247;50.944;5.382;2024-03-07T01:06:42;4.20;;;0.98;;
43650;SDS011;29247;50.944;5.382;2024-03-07T01:09:11;2.17;;;1.42;;
43650;SDS011;29247;50.944;5.382;2024-03-07T01:11:43;2.58;;;1.38;;
43650;SDS011;29247;50.944;5.382;2024-03-07T01:14:15;1.52;;;1.08;;
43650;SDS011;29247;50.944;5.382;2024-03-07T01:16:41;1.77;;;1.38;;
43650;SDS011;29247;50.944;5.382;2024-03-07T01:19:09;6.18;;;1.23;;
43650;SDS011;29247;50.944;5.382;2024-03-07T01:21:39;2.65;;;1.17;;
43650;SDS011;29247;50.944;5.382;2024-03-07T01:24:05;2.78;;;1.05;;
43650;SDS011;29247;50.944;5.382;2024-03-07T01:26:31;1.92;;;1.50;;
43650;SDS011;29247;50.944;5.382;2024-03-07T01:28:58;1.90;;;1.20;;
43650;SDS011;29247;50.944;5.382;2024-03-07T01:31:24;1.92;;;1.30;;
43650;SDS011;29247;50.944;5.382;2024-03-07T01:33:51;1.77;;;1.55;;
43650;SDS011;29247;50.944;5.382;2024-03-07T01:36:18;1.27;;;1.13;;
43650;SDS011;29247;50.944;5.382;2024-03-07T01:38:44;1.33;;;1.10;;
43650;SDS011;29247;50.944;5.382;2024-03-07T01:41:11;1.38;;;1.20;;
43650;SDS011;29247;50.944;5.382;2024-03-07T01:43:39;2.17;;;1.45;;
43650;SDS011;29247;50.944;5.382;2024-03-07T01:46:05;1.60;;;1.15;;
43650;SDS011;29247;50.944;5.382;2024-03-07T01:48:34;1.88;;;1.20;;
43650;SDS011;29247;50.944;5.382;2024-03-07T01:51:04;2.25;;;1.23;;
43650;SDS011;29247;50.944;5.382;2024-03-07T01:53:33;1.10;;;1.00;;
43650;SDS011;29247;50.944;5.382;2024-03-07T01:56:02;1.73;;;1.10;;
43650;SDS011;29247;50.944;5.382;2024-03-07T01:58:31;2.20;;;1.23;;
43650;SDS011;29247;50.944;5.382;2024-03-07T02:00:58;1.73;;;1.38;;
43650;SDS011;29247;50.944;5.382;2024-03-07T02:03:24;1.35;;;1.17;;
43650;SDS011;29247;50.944;5.382;2024-03-07T02:05:51;1.38;;;1.27;;
43650;SDS011;29247;50.944;5.382;2024-03-07T02:08:17;1.70;;;1.08;;
43650;SDS011;29247;50.944;5.382;2024-03-07T02:10:44;2.78;;;1.13;;
43650;SDS011;29247;50.944;5.382;2024-03-07T02:13:11;1.38;;;1.08;;
43650;SDS011;29247;50.944;5.382;2024-03-07T02:15:36;2.35;;;1.80;;
43650;SDS011;29247;50.944;5.382;2024-03-07T02:18:04;3.85;;;1.38;;
43650;SDS011;29247;50.944;5.382;2024-03-07T02:20:35;2.13;;;1.10;;
43650;SDS011;29247;50.944;5.382;2024-03-07T02:23:04;1.88;;;1.35;;
43650;SDS011;29247;50.944;5.382;2024-03-07T02:25:29;1.77;;;1.67;;
43650;SDS011;29247;50.944;5.382;2024-03-07T02:27:57;1.52;;;1.10;;
43650;SDS011;29247;50.944;5.382;2024-03-07T02:30:22;1.73;;;1.20;;
43650;SDS011;29247;50.944;5.382;2024-03-07T02:32:57;1.77;;;1.15;;
43650;SDS011;29247;50.944;5.382;2024-03-07T02:35:31;3.63;;;2.08;;
43650;SDS011;29247;50.944;5.382;2024-03-07T02:38:03;1.48;;;1.17;;
43650;SDS011;29247;50.944;5.382;2024-03-07T02:40:30;1.08;;;0.98;;
43650;SDS011;29247;50.944;5.382;2024-03-07T02:42:56;2.03;;;1.00;;
43650;SDS011;29247;50.944;5.382;2024-03-07T02:45:23;1.58;;;1.35;;
43650;SDS011;29247;50.944;5.382;2024-03-07T02:47:48;2.42;;;1.52;;
43650;SDS011;29247;50.944;5.382;2024-03-07T02:50:17;0.90;;;0.70;;
43650;SDS011;29247;50.944;5.382;2024-03-07T02:52:42;2.33;;;1.20;;
43650;SDS011;29247;50.944;5.382;2024-03-07T02:55:08;1.20;;;1.10;;
43650;SDS011;29247;50.944;5.382;2024-03-07T02:57:35;2.83;;;1.30;;
43650;SDS011;29247;50.944;5.382;2024-03-07T03:00:04;1.65;;;1.15;;
43650;SDS011;29247;50.944;5.382;2024-03-07T03:02:39;2.72;;;1.30;;
43650;SDS011;29247;50.944;5.382;2024-03-07T03:05:04;1.85;;;1.33;;
43650;SDS011;29247;50.944;5.382;2024-03-07T03:07:34;3.47;;;1.67;;
43650;SDS011;29247;50.944;5.382;2024-03-07T03:10:00;2.10;;;1.17;;
43650;SDS011;29247;50.944;5.382;2024-03-07T03:12:26;1.90;;;1.08;;
43650;SDS011;29247;50.944;5.382;2024-03-07T03:14:52;1.25;;;1.08;;
43650;SDS011;29247;50.944;5.382;2024-03-07T03:17:20;1.27;;;0.90;;
43650;SDS011;29247;50.944;5.382;2024-03-07T03:19:48;1.35;;;1.13;;
43650;SDS011;29247;50.944;5.382;2024-03-07T03:22:16;1.35;;;1.17;;
43650;SDS011;29247;50.944;5.382;2024-03-07T03:24:43;1.15;;;1.02;;
43650;SDS011;29247;50.944;5.382;2024-03-07T03:27:12;1.17;;;1.08;;
43650;SDS011;29247;50.944;5.382;2024-03-07T03:29:40;2.22;;;1.00;;
43650;SDS011;29247;50.944;5.382;2024-03-07T03:32:06;2.35;;;1.58;;
43650;SDS011;29247;50.944;5.382;2024-03-07T03:34:32;3.25;;;1.48;;
43650;SDS011;29247;50.944;5.382;2024-03-07T03:36:58;1.83;;;1.20;;
43650;SDS011;29247;50.944;5.382;2024-03-07T03:39:27;2.17;;;1.20;;
43650;SDS011;29247;50.944;5.382;2024-03-07T03:41:53;3.10;;;1.70;;
43650;SDS011;29247;50.944;5.382;2024-03-07T03:44:18;1.58;;;1.10;;
43650;SDS011;29247;50.944;5.382;2024-03-07T03:46:44;1.77;;;1.35;;
43650;SDS011;29247;50.944;5.382;2024-03-07T03:49:10;3.33;;;1.40;;
43650;SDS011;29247;50.944;5.382;2024-03-07T03:51:35;2.35;;;1.13;;
43650;SDS011;29247;50.944;5.382;2024-03-07T03:54:01;2.30;;;1.00;;
43650;SDS011;29247;50.944;5.382;2024-03-07T03:56:27;1.67;;;1.35;;
43650;SDS011;29247;50.944;5.382;2024-03-07T03:58:53;1.90;;;1.10;;
43650;SDS011;29247;50.944;5.382;2024-03-07T04:01:19;1.30;;;1.20;;
43650;SDS011;29247;50.944;5.382;2024-03-07T04:03:44;1.40;;;1.30;;
43650;SDS011;29247;50.944;5.382;2024-03-07T04:06:15;2.00;;;1.48;;
43650;SDS011;29247;50.944;5.382;2024-03-07T04:08:41;1.88;;;1.30;;
43650;SDS011;29247;50.944;5.382;2024-03-07T04:11:06;1.40;;;0.98;;
43650;SDS011;29247;50.944;5.382;2024-03-07T04:13:37;2.10;;;1.38;;
43650;SDS011;29247;50.944;5.382;2024-03-07T04:16:03;1.38;;;1.15;;
43650;SDS011;29247;50.944;5.382;2024-03-07T04:18:32;2.90;;;1.50;;
43650;SDS011;29247;50.944;5.382;2024-03-07T04:20:57;1.13;;;1.00;;
43650;SDS011;29247;50.944;5.382;2024-03-07T04:23:23;1.38;;;1.13;;
43650;SDS011;29247;50.944;5.382;2024-03-07T04:25:49;1.42;;;1.33;;
43650;SDS011;29247;50.944;5.382;2024-03-07T04:28:15;1.65;;;1.27;;
43650;SDS011;29247;50.944;5.382;2024-03-07T04:30:41;1.42;;;0.80;;
43650;SDS011;29247;50.944;5.382;2024-03-07T04:33:07;1.00;;;1.00;;
43650;SDS011;29247;50.944;5.382;2024-03-07T04:35:35;1.30;;;1.20;;
43650;SDS011;29247;50.944;5.382;2024-03-07T04:38:01;1.15;;;1.05;;
43650;SDS011;29247;50.944;5.382;2024-03-07T04:40:27;2.13;;;1.33;;
43650;SDS011;29247;50.944;5.382;2024-03-07T04:42:52;3.38;;;1.23;;
43650;SDS011;29247;50.944;5.382;2024-03-07T04:45:18;1.15;;;1.00;;
43650;SDS011;29247;50.944;5.382;2024-03-07T04:47:46;1.95;;;1.75;;
43650;SDS011;29247;50.944;5.382;2024-03-07T04:50:13;1.92;;;1.42;;
43650;SDS011;29247;50.944;5.382;2024-03-07T04:52:44;2.97;;;1.65;;
43650;SDS011;29247;50.944;5.382;2024-03-07T04:55:11;2.75;;;1.85;;
43650;SDS011;29247;50.944;5.382;2024-03-07T04:57:38;4.60;;;2.13;;
43650;SDS011;29247;50.944;5.382;2024-03-07T05:02:38;3.15;;;2.10;;
43650;SDS011;29247;50.944;5.382;2024-03-07T05:05:06;2.58;;;1.65;;
43650;SDS011;29247;50.944;5.382;2024-03-07T05:07:36;3.13;;;1.50;;
43650;SDS011;29247;50.944;5.382;2024-03-07T05:10:02;1.52;;;1.23;;
43650;SDS011;29247;50.944;5.382;2024-03-07T05:12:33;2.13;;;1.17;;
43650;SDS011;29247;50.944;5.382;2024-03-07T05:14:59;5.30;;;2.00;;
43650;SDS011;29247;50.944;5.382;2024-03-07T05:17:25;1.90;;;1.40;;
43650;SDS011;29247;50.944;5.382;2024-03-07T05:19:51;3.38;;;1.60;;
43650;SDS011;29247;50.944;5.382;2024-03-07T05:22:16;2.55;;;1.40;;
43650;SDS011;29247;50.944;5.382;2024-03-07T05:24:45;3.05;;;1.58;;
43650;SDS011;29247;50.944;5.382;2024-03-07T05:27:11;3.50;;;1.58;;
43650;SDS011;29247;50.944;5.382;2024-03-07T05:29:37;4.60;;;1.75;;
43650;SDS011;29247;50.944;5.382;2024-03-07T05:34:51;3.67;;;1.92;;
43650;SDS011;29247;50.944;5.382;2024-03-07T05:37:23;2.38;;;1.75;;
43650;SDS011;29247;50.944;5.382;2024-03-07T05:42:19;2.33;;;1.30;;
43650;SDS011;29247;50.944;5.382;2024-03-07T05:44:45;3.30;;;1.40;;
43650;SDS011;29247;50.944;5.382;2024-03-07T05:47:14;2.83;;;1.35;;
43650;SDS011;29247;50.944;5.382;2024-03-07T05:49:39;2.90;;;1.40;;
43650;SDS011;29247;50.944;5.382;2024-03-07T05:52:08;1.17;;;1.08;;
43650;SDS011;29247;50.944;5.382;2024-03-07T05:54:34;2.25;;;1.23;;
43650;SDS011;29247;50.944;5.382;2024-03-07T05:57:03;5.35;;;2.10;;
43650;SDS011;29247;50.944;5.382;2024-03-07T05:59:31;8.35;;;2.15;;
43650;SDS011;29247;50.944;5.382;2024-03-07T06:01:58;2.58;;;1.42;;
43650;SDS011;29247;50.944;5.382;2024-03-07T06:04:24;1.75;;;1.30;;
43650;SDS011;29247;50.944;5.382;2024-03-07T06:06:52;2.03;;;1.08;;
43650;SDS011;29247;50.944;5.382;2024-03-07T06:09:20;5.93;;;1.90;;
43650;SDS011;29247;50.944;5.382;2024-03-07T06:11:48;5.80;;;1.95;;
43650;SDS011;29247;50.944;5.382;2024-03-07T06:14:14;5.45;;;1.30;;
43650;SDS011;29247;50.944;5.382;2024-03-07T06:16:41;6.03;;;1.80;;
43650;SDS011;29247;50.944;5.382;2024-03-07T06:19:09;3.97;;;1.42;;
43650;SDS011;29247;50.944;5.382;2024-03-07T06:21:38;3.58;;;1.45;;
43650;SDS011;29247;50.944;5.382;2024-03-07T06:24:07;2.50;;;1.65;;
43650;SDS011;29247;50.944;5.382;2024-03-07T06:26:36;4.30;;;1.95;;
43650;SDS011;29247;50.944;5.382;2024-03-07T06:29:13;1.67;;;1.48;;
43650;SDS011;29247;50.944;5.382;2024-03-07T06:31:40;4.65;;;1.70;;
43650;SDS011;29247;50.944;5.382;2024-03-07T06:34:14;1.42;;;1.17;;
43650;SDS011;29247;50.944;5.382;2024-03-07T06:36:39;3.42;;;1.63;;
43650;SDS011;29247;50.944;5.382;2024-03-07T06:39:05;5.32;;;1.38;;
43650;SDS011;29247;50.944;5.382;2024-03-07T06:41:32;1.52;;;1.40;;
43650;SDS011;29247;50.944;5.382;2024-03-07T06:44:01;3.25;;;1.77;;
43650;SDS011;29247;50.944;5.382;2024-03-07T06:46:30;7.05;;;2.13;;
43650;SDS011;29247;50.944;5.382;2024-03-07T06:48:59;4.88;;;2.05;;
43650;SDS011;29247;50.944;5.382;2024-03-07T06:51:25;4.18;;;1.67;;
43650;SDS011;29247;50.944;5.382;2024-03-07T06:53:51;2.88;;;1.55;;
43650;SDS011;29247;50.944;5.382;2024-03-07T06:56:21;2.70;;;1.80;;
43650;SDS011;29247;50.944;5.382;2024-03-07T06:58:53;5.53;;;1.38;;
43650;SDS011;29247;50.944;5.382;2024-03-07T07:01:18;2.88;;;1.63;;
43650;SDS011;29247;50.944;5.382;2024-03-07T07:03:44;2.28;;;1.20;;
43650;SDS011;29247;50.944;5.382;2024-03-07T07:06:12;3.92;;;1.10;;
43650;SDS011;29247;50.944;5.382;2024-03-07T07:08:38;2.60;;;1.30;;
43650;SDS011;29247;50.944;5.382;2024-03-07T07:11:06;3.00;;;1.27;;
43650;SDS011;29247;50.944;5.382;2024-03-07T07:13:32;4.00;;;1.50;;
43650;SDS011;29247;50.944;5.382;2024-03-07T07:15:58;4.43;;;1.77;;
43650;SDS011;29247;50.944;5.382;2024-03-07T07:18:24;3.22;;;1.73;;
43650;SDS011;29247;50.944;5.382;2024-03-07T07:20:51;3.33;;;1.70;;
43650;SDS011;29247;50.944;5.382;2024-03-07T07:23:18;5.47;;;1.98;;
43650;SDS011;29247;50.944;5.382;2024-03-07T07:25:44;2.90;;;1.92;;
43650;SDS011;29247;50.944;5.382;2024-03-07T07:28:11;3.88;;;1.58;;
43650;SDS011;29247;50.944;5.382;2024-03-07T07:30:36;5.55;;;2.17;;
43650;SDS011;29247;50.944;5.382;2024-03-07T07:33:05;2.35;;;1.80;;
43650;SDS011;29247;50.944;5.382;2024-03-07T07:35:35;3.28;;;1.77;;
43650;SDS011;29247;50.944;5.382;2024-03-07T07:38:01;2.95;;;2.28;;
43650;SDS011;29247;50.944;5.382;2024-03-07T07:40:32;5.82;;;3.45;;
43650;SDS011;29247;50.944;5.382;2024-03-07T07:42:58;4.95;;;2.65;;
43650;SDS011;29247;50.944;5.382;2024-03-07T07:45:26;3.00;;;2.35;;
43650;SDS011;29247;50.944;5.382;2024-03-07T07:47:52;3.50;;;1.83;;
43650;SDS011;29247;50.944;5.382;2024-03-07T07:50:19;8.43;;;2.97;;
43650;SDS011;29247;50.944;5.382;2024-03-07T07:55:18;4.53;;;2.58;;
43650;SDS011;29247;50.944;5.382;2024-03-07T07:57:45;5.63;;;2.40;;
43650;SDS011;29247;50.944;5.382;2024-03-07T08:00:18;6.30;;;2.25;;
43650;SDS011;29247;50.944;5.382;2024-03-07T08:05:34;3.20;;;2.22;;
43650;SDS011;29247;50.944;5.382;2024-03-07T08:08:02;14.00;;;6.20;;
43650;SDS011;29247;50.944;5.382;2024-03-07T08:10:31;7.67;;;3.73;;
43650;SDS011;29247;50.944;5.382;2024-03-07T08:12:58;8.43;;;3.72;;
43650;SDS011;29247;50.944;5.382;2024-03-07T08:15:26;9.15;;;3.22;;
43650;SDS011;29247;50.944;5.382;2024-03-07T08:17:53;7.07;;;3.45;;
43650;SDS011;29247;50.944;5.382;2024-03-07T08:20:22;6.15;;;2.90;;
43650;SDS011;29247;50.944;5.382;2024-03-07T08:22:50;3.30;;;2.63;;
43650;SDS011;29247;50.944;5.382;2024-03-07T08:25:20;4.95;;;2.65;;
43650;SDS011;29247;50.944;5.382;2024-03-07T08:27:51;5.63;;;2.85;;
43650;SDS011;29247;50.944;5.382;2024-03-07T08:30:21;3.22;;;2.20;;
43650;SDS011;29247;50.944;5.382;2024-03-07T08:32:54;4.90;;;2.28;;
43650;SDS011;29247;50.944;5.382;2024-03-07T08:35:21;2.33;;;1.60;;
43650;SDS011;29247;50.944;5.382;2024-03-07T08:37:48;3.45;;;2.33;;
43650;SDS011;29247;50.944;5.382;2024-03-07T08:40:18;4.78;;;2.88;;
43650;SDS011;29247;50.944;5.382;2024-03-07T08:42:46;2.80;;;1.75;;
43650;SDS011;29247;50.944;5.382;2024-03-07T08:45:17;3.45;;;2.30;;
43650;SDS011;29247;50.944;5.382;2024-03-07T08:47:47;3.25;;;2.25;;
43650;SDS011;29247;50.944;5.382;2024-03-07T08:50:13;2.58;;;1.88;;
43650;SDS011;29247;50.944;5.382;2024-03-07T08:52:43;3.25;;;1.75;;
43650;SDS011;29247;50.944;5.382;2024-03-07T08:55:09;3.08;;;2.33;;
43650;SDS011;29247;50.944;5.382;2024-03-07T08:57:40;6.13;;;1.80;;
43650;SDS011;29247;50.944;5.382;2024-03-07T09:00:07;6.25;;;2.08;;
43650;SDS011;29247;50.944;5.382;2024-03-07T09:02:37;4.85;;;2.45;;
43650;SDS011;29247;50.944;5.382;2024-03-07T09:05:07;3.70;;;1.80;;
43650;SDS011;29247;50.944;5.382;2024-03-07T09:07:35;5.25;;;2.92;;
43650;SDS011;29247;50.944;5.382;2024-03-07T09:10:03;5.05;;;1.80;;
43650;SDS011;29247;50.944;5.382;2024-03-07T09:12:29;3.03;;;1.98;;
43650;SDS011;29247;50.944;5.382;2024-03-07T09:14:55;1.75;;;1.33;;
43650;SDS011;29247;50.944;5.382;2024-03-07T09:17:26;3.45;;;1.63;;
43650;SDS011;29247;50.944;5.382;2024-03-07T09:19:51;5.85;;;2.05;;
43650;SDS011;29247;50.944;5.382;2024-03-07T09:22:17;1.92;;;1.55;;
43650;SDS011;29247;50.944;5.382;2024-03-07T09:24:43;3.60;;;1.80;;
43650;SDS011;29247;50.944;5.382;2024-03-07T09:27:08;3.67;;;2.28;;
43650;SDS011;29247;50.944;5.382;2024-03-07T09:29:34;4.28;;;1.77;;
43650;SDS011;29247;50.944;5.382;2024-03-07T09:32:00;4.30;;;2.17;;
43650;SDS011;29247;50.944;5.382;2024-03-07T09:34:27;2.72;;;2.08;;
43650;SDS011;29247;50.944;5.382;2024-03-07T09:36:55;7.68;;;2.55;;
43650;SDS011;29247;50.944;5.382;2024-03-07T09:39:24;3.13;;;1.60;;
43650;SDS011;29247;50.944;5.382;2024-03-07T09:41:49;6.30;;;2.20;;
43650;SDS011;29247;50.944;5.382;2024-03-07T09:44:16;4.00;;;2.63;;
43650;SDS011;29247;50.944;5.382;2024-03-07T09:46:48;3.58;;;2.22;;
43650;SDS011;29247;50.944;5.382;2024-03-07T09:49:27;3.15;;;1.95;;
43650;SDS011;29247;50.944;5.382;2024-03-07T09:52:00;2.63;;;2.10;;
43650;SDS011;29247;50.944;5.382;2024-03-07T09:54:33;7.50;;;2.78;;
43650;SDS011;29247;50.944;5.382;2024-03-07T09:57:00;5.40;;;2.13;;
43650;SDS011;29247;50.944;5.382;2024-03-07T09:59:31;3.35;;;2.38;;
43650;SDS011;29247;50.944;5.382;2024-03-07T10:02:00;5.85;;;1.85;;
43650;SDS011;29247;50.944;5.382;2024-03-07T10:04:51;3.72;;;1.92;;
43650;SDS011;29247;50.944;5.382;2024-03-07T10:07:20;5.93;;;2.22;;
43650;SDS011;29247;50.944;5.382;2024-03-07T10:09:46;2.45;;;1.92;;
43650;SDS011;29247;50.944;5.382;2024-03-07T10:12:16;2.88;;;2.08;;
43650;SDS011;29247;50.944;5.382;2024-03-07T10:14:50;1.88;;;1.52;;
43650;SDS011;29247;50.944;5.382;2024-03-07T10:17:24;5.35;;;2.38;;
43650;SDS011;29247;50.944;5.382;2024-03-07T10:19:51;4.10;;;2.08;;
43650;SDS011;29247;50.944;5.382;2024-03-07T10:22:19;3.20;;;1.92;;
43650;SDS011;29247;50.944;5.382;2024-03-07T10:24:55;3.42;;;1.98;;
43650;SDS011;29247;50.944;5.382;2024-03-07T10:27:22;7.13;;;1.95;;
43650;SDS011;29247;50.944;5.382;2024-03-07T10:29:53;4.33;;;2.27;;
43650;SDS011;29247;50.944;5.382;2024-03-07T10:32:20;2.38;;;1.50;;
43650;SDS011;29247;50.944;5.382;2024-03-07T10:34:47;3.55;;;2.88;;
43650;SDS011;29247;50.944;5.382;2024-03-07T10:37:13;2.70;;;2.10;;
43650;SDS011;29247;50.944;5.382;2024-03-07T10:39:45;3.22;;;1.63;;
43650;SDS011;29247;50.944;5.382;2024-03-07T10:42:14;4.32;;;2.03;;
43650;SDS011;29247;50.944;5.382;2024-03-07T10:44:50;3.90;;;2.40;;
43650;SDS011;29247;50.944;5.382;2024-03-07T10:47:21;4.07;;;1.73;;
43650;SDS011;29247;50.944;5.382;2024-03-07T10:52:58;4.00;;;2.33;;
43650;SDS011;29247;50.944;5.382;2024-03-07T10:55:40;3.95;;;2.75;;
43650;SDS011;29247;50.944;5.382;2024-03-07T11:01:03;2.63;;;2.20;;
43650;SDS011;29247;50.944;5.382;2024-03-07T11:03:34;2.67;;;1.67;;
43650;SDS011;29247;50.944;5.382;2024-03-07T11:06:03;3.03;;;1.83;;
43650;SDS011;29247;50.944;5.382;2024-03-07T11:08:35;3.20;;;1.92;;
43650;SDS011;29247;50.944;5.382;2024-03-07T11:11:02;4.20;;;2.25;;
43650;SDS011;29247;50.944;5.382;2024-03-07T11:13:29;3.17;;;2.00;;
43650;SDS011;29247;50.944;5.382;2024-03-07T11:15:58;2.97;;;1.83;;
43650;SDS011;29247;50.944;5.382;2024-03-07T11:18:25;5.32;;;2.35;;
43650;SDS011;29247;50.944;5.382;2024-03-07T11:20:54;2.97;;;1.70;;
43650;SDS011;29247;50.944;5.382;2024-03-07T11:26:03;5.00;;;2.10;;
43650;SDS011;29247;50.944;5.382;2024-03-07T11:28:32;2.45;;;2.15;;
43650;SDS011;29247;50.944;5.382;2024-03-07T11:31:15;3.95;;;1.80;;
43650;SDS011;29247;50.944;5.382;2024-03-07T11:34:14;3.97;;;2.40;;
43650;SDS011;29247;50.944;5.382;2024-03-07T11:36:47;3.08;;;1.58;;
43650;SDS011;29247;50.944;5.382;2024-03-07T11:39:39;3.50;;;1.83;;
43650;SDS011;29247;50.944;5.382;2024-03-07T11:42:09;2.60;;;1.45;;
43650;SDS011;29247;50.944;5.382;2024-03-07T11:44:44;3.10;;;2.05;;
43650;SDS011;29247;50.944;5.382;2024-03-07T11:47:12;4.03;;;2.10;;
43650;SDS011;29247;50.944;5.382;2024-03-07T11:49:38;2.38;;;1.70;;
43650;SDS011;29247;50.944;5.382;2024-03-07T11:52:06;2.08;;;1.60;;
43650;SDS011;29247;50.944;5.382;2024-03-07T11:54:38;3.88;;;2.13;;
43650;SDS011;29247;50.944;5.382;2024-03-07T11:57:20;5.20;;;2.03;;
43650;SDS011;29247;50.944;5.382;2024-03-07T11:59:57;4.97;;;2.20;;
43650;SDS011;29247;50.944;5.382;2024-03-07T12:02:25;3.70;;;2.17;;
43650;SDS011;29247;50.944;5.382;2024-03-07T12:04:54;2.13;;;1.35;;
43650;SDS011;29247;50.944;5.382;2024-03-07T12:07:20;2.03;;;1.65;;
43650;SDS011;29247;50.944;5.382;2024-03-07T12:09:48;3.05;;;2.28;;
43650;SDS011;29247;50.944;5.382;2024-03-07T12:12:21;2.90;;;1.63;;
43650;SDS011;29247;50.944;5.382;2024-03-07T12:14:47;3.67;;;1.40;;
43650;SDS011;29247;50.944;5.382;2024-03-07T12:17:16;3.42;;;1.90;;
43650;SDS011;29247;50.944;5.382;2024-03-07T12:19:43;2.95;;;1.73;;
43650;SDS011;29247;50.944;5.382;2024-03-07T12:22:09;3.83;;;1.65;;
43650;SDS011;29247;50.944;5.382;2024-03-07T12:24:38;4.25;;;2.05;;
43650;SDS011;29247;50.944;5.382;2024-03-07T12:27:15;3.90;;;2.45;;
43650;SDS011;29247;50.944;5.382;2024-03-07T12:29:41;4.35;;;1.75;;
43650;SDS011;29247;50.944;5.382;2024-03-07T12:32:12;5.20;;;2.72;;
43650;SDS011;29247;50.944;5.382;2024-03-07T12:34:40;3.75;;;2.13;;
43650;SDS011;29247;50.944;5.382;2024-03-07T12:37:10;4.28;;;1.80;;
43650;SDS011;29247;50.944;5.382;2024-03-07T12:39:40;4.37;;;2.23;;
43650;SDS011;29247;50.944;5.382;2024-03-07T12:42:26;2.80;;;1.70;;
43650;SDS011;29247;50.944;5.382;2024-03-07T12:44:53;4.50;;;2.58;;
43650;SDS011;29247;50.944;5.382;2024-03-07T12:47:19;2.72;;;1.52;;
43650;SDS011;29247;50.944;5.382;2024-03-07T12:49:48;1.85;;;1.58;;
43650;SDS011;29247;50.944;5.382;2024-03-07T12:52:14;2.70;;;1.77;;
43650;SDS011;29247;50.944;5.382;2024-03-07T12:54:44;3.75;;;2.70;;
43650;SDS011;29247;50.944;5.382;2024-03-07T12:57:12;2.97;;;2.00;;
43650;SDS011;29247;50.944;5.382;2024-03-07T12:59:38;3.95;;;2.13;;
43650;SDS011;29247;50.944;5.382;2024-03-07T13:02:10;6.22;;;1.80;;
43650;SDS011;29247;50.944;5.382;2024-03-07T13:04:37;3.03;;;1.92;;
43650;SDS011;29247;50.944;5.382;2024-03-07T13:07:06;3.67;;;2.38;;
43650;SDS011;29247;50.944;5.382;2024-03-07T13:09:34;4.30;;;2.42;;
43650;SDS011;29247;50.944;5.382;2024-03-07T13:12:00;4.38;;;1.95;;
43650;SDS011;29247;50.944;5.382;2024-03-07T13:14:31;2.70;;;1.77;;
43650;SDS011;29247;50.944;5.382;2024-03-07T13:17:06;3.00;;;2.20;;
43650;SDS011;29247;50.944;5.382;2024-03-07T13:19:31;2.63;;;1.83;;
43650;SDS011;29247;50.944;5.382;2024-03-07T13:21:58;3.05;;;1.67;;
43650;SDS011;29247;50.944;5.382;2024-03-07T13:24:24;2.75;;;1.90;;
43650;SDS011;29247;50.944;5.382;2024-03-07T13:26:52;5.30;;;1.92;;
43650;SDS011;29247;50.944;5.382;2024-03-07T13:29:18;3.80;;;1.85;;
43650;SDS011;29247;50.944;5.382;2024-03-07T13:31:49;3.33;;;2.00;;
43650;SDS011;29247;50.944;5.382;2024-03-07T13:34:21;2.83;;;1.60;;
43650;SDS011;29247;50.944;5.382;2024-03-07T13:36:51;2.17;;;1.70;;
43650;SDS011;29247;50.944;5.382;2024-03-07T13:39:17;2.75;;;1.60;;
43650;SDS011;29247;50.944;5.382;2024-03-07T13:41:43;3.15;;;1.70;;
43650;SDS011;29247;50.944;5.382;2024-03-07T13:44:13;2.28;;;2.08;;
43650;SDS011;29247;50.944;5.382;2024-03-07T13:46:39;2.33;;;1.67;;
43650;SDS011;29247;50.944;5.382;2024-03-07T13:49:06;3.42;;;2.22;;
43650;SDS011;29247;50.944;5.382;2024-03-07T13:51:40;4.10;;;2.10;;
43650;SDS011;29247;50.944;5.382;2024-03-07T13:54:19;4.82;;;2.00;;
43650;SDS011;29247;50.944;5.382;2024-03-07T14:16:18;2.30;;;1.75;;
43650;SDS011;29247;50.944;5.382;2024-03-07T14:22:14;2.55;;;1.65;;
43650;SDS011;29247;50.944;5.382;2024-03-07T14:30:53;2.65;;;2.05;;
43650;SDS011;29247;50.944;5.382;2024-03-07T14:39:44;3.15;;;1.80;;
43650;SDS011;29247;50.944;5.382;2024-03-07T14:42:15;3.88;;;2.15;;
43650;SDS011;29247;50.944;5.382;2024-03-07T14:44:42;2.67;;;2.05;;
43650;SDS011;29247;50.944;5.382;2024-03-07T14:47:13;5.28;;;2.45;;
43650;SDS011;29247;50.944;5.382;2024-03-07T14:49:43;2.40;;;1.58;;
43650;SDS011;29247;50.944;5.382;2024-03-07T14:52:11;3.65;;;2.17;;
43650;SDS011;29247;50.944;5.382;2024-03-07T14:54:38;4.00;;;2.22;;
43650;SDS011;29247;50.944;5.382;2024-03-07T14:57:04;2.33;;;1.65;;
43650;SDS011;29247;50.944;5.382;2024-03-07T14:59:33;3.33;;;2.00;;
43650;SDS011;29247;50.944;5.382;2024-03-07T15:02:01;2.83;;;1.67;;
43650;SDS011;29247;50.944;5.382;2024-03-07T15:04:35;5.38;;;1.95;;
43650;SDS011;29247;50.944;5.382;2024-03-07T15:07:01;2.00;;;1.15;;
43650;SDS011;29247;50.944;5.382;2024-03-07T15:09:29;4.63;;;2.30;;
43650;SDS011;29247;50.944;5.382;2024-03-07T15:11:59;1.73;;;1.17;;
43650;SDS011;29247;50.944;5.382;2024-03-07T15:14:24;2.63;;;2.17;;
43650;SDS011;29247;50.944;5.382;2024-03-07T15:16:50;5.50;;;1.42;;
43650;SDS011;29247;50.944;5.382;2024-03-07T15:19:16;2.72;;;2.00;;
43650;SDS011;29247;50.944;5.382;2024-03-07T15:21:47;3.13;;;2.05;;
43650;SDS011;29247;50.944;5.382;2024-03-07T15:24:15;4.40;;;2.08;;
43650;SDS011;29247;50.944;5.382;2024-03-07T15:29:12;2.25;;;1.67;;
43650;SDS011;29247;50.944;5.382;2024-03-07T15:31:45;3.55;;;1.83;;
43650;SDS011;29247;50.944;5.382;2024-03-07T15:34:13;2.80;;;1.63;;
43650;SDS011;29247;50.944;5.382;2024-03-07T15:36:41;2.40;;;1.75;;
43650;SDS011;29247;50.944;5.382;2024-03-07T15:39:08;1.80;;;1.70;;
43650;SDS011;29247;50.944;5.382;2024-03-07T15:41:45;2.72;;;1.88;;
43650;SDS011;29247;50.944;5.382;2024-03-07T15:44:14;1.75;;;1.63;;
43650;SDS011;29247;50.944;5.382;2024-03-07T15:49:12;2.75;;;1.25;;
43650;SDS011;29247;50.944;5.382;2024-03-07T15:51:38;3.17;;;1.30;;
43650;SDS011;29247;50.944;5.382;2024-03-07T15:54:06;1.92;;;1.70;;
43650;SDS011;29247;50.944;5.382;2024-03-07T15:56:32;4.22;;;1.63;;
43650;SDS011;29247;50.944;5.382;2024-03-07T15:58:58;2.88;;;2.38;;